Accueil
METAR-TAF:

METAR-TAF

Aéroports :

Aérodrome de Maradi

Maradi, Niger

latitude: 13-28N, longitude: 007-05E, altitude: 372 m

Observation

Le bulletin a été fait il y a 8 heures et 45 minutes, à 18:00 UTC
Vent 8 kt de est
Température 33°C
Humidité 10%
Pression 1010 hPa
Visibilité: 8000 m

METAR: DRRM 031800Z 08008KT 8000 NSC 33/M03 Q1010

Heure: 03:45 (02:45 UTC)


TAF: absent

Observations et prévisions météorologiques de plus de 4000 aéroports (messages METAR et TAF).

Les stations disponibles sont représentées par des disques jaunes et rouges sur la carte.

Passer la souris dessus pour voir le nom de la station.

Cliquer dessus pour voir les observations et prévisions météorologiques.

Pour changer de carte: cliquez sur les boutons verts avec une croix noire pour zoomer, sur le bouton vert avec un tiret pour effectuer un zoom arrière, ou sur les flèches vertes pour les cartes adjacentes.


METAR-TAF: